sensor_id;sensor_type;location;lat;lon;timestamp;P1;durP1;ratioP1;P2;durP2;ratioP2
74974;SDS011;68459;50.836;19.138;2023-04-25T00:00:59;3.40;;;1.65;;
74974;SDS011;68459;50.836;19.138;2023-04-25T00:04:05;5.38;;;1.90;;
74974;SDS011;68459;50.836;19.138;2023-04-25T00:07:09;6.73;;;2.07;;
74974;SDS011;68459;50.836;19.138;2023-04-25T00:10:13;3.87;;;2.00;;
74974;SDS011;68459;50.836;19.138;2023-04-25T00:13:17;4.72;;;2.10;;
74974;SDS011;68459;50.836;19.138;2023-04-25T00:16:21;3.35;;;1.80;;
74974;SDS011;68459;50.836;19.138;2023-04-25T00:19:27;5.03;;;2.00;;
74974;SDS011;68459;50.836;19.138;2023-04-25T00:22:31;3.03;;;2.00;;
74974;SDS011;68459;50.836;19.138;2023-04-25T00:25:36;4.18;;;2.08;;
74974;SDS011;68459;50.836;19.138;2023-04-25T00:28:39;4.00;;;1.90;;
74974;SDS011;68459;50.836;19.138;2023-04-25T00:31:43;4.20;;;2.35;;
74974;SDS011;68459;50.836;19.138;2023-04-25T00:34:48;4.25;;;2.33;;
74974;SDS011;68459;50.836;19.138;2023-04-25T00:37:53;4.43;;;2.37;;
74974;SDS011;68459;50.836;19.138;2023-04-25T00:40:57;4.72;;;2.42;;
74974;SDS011;68459;50.836;19.138;2023-04-25T00:44:01;4.82;;;2.60;;
74974;SDS011;68459;50.836;19.138;2023-04-25T00:47:08;6.20;;;2.80;;
74974;SDS011;68459;50.836;19.138;2023-04-25T00:50:15;4.38;;;2.70;;
74974;SDS011;68459;50.836;19.138;2023-04-25T00:53:19;4.53;;;2.60;;
74974;SDS011;68459;50.836;19.138;2023-04-25T00:56:24;4.88;;;2.70;;
74974;SDS011;68459;50.836;19.138;2023-04-25T00:59:29;4.07;;;2.27;;
74974;SDS011;68459;50.836;19.138;2023-04-25T01:02:33;3.92;;;2.70;;
74974;SDS011;68459;50.836;19.138;2023-04-25T01:05:40;4.38;;;2.70;;
74974;SDS011;68459;50.836;19.138;2023-04-25T01:08:45;4.97;;;2.93;;
74974;SDS011;68459;50.836;19.138;2023-04-25T01:11:49;4.07;;;2.55;;
74974;SDS011;68459;50.836;19.138;2023-04-25T01:14:53;6.85;;;3.53;;
74974;SDS011;68459;50.836;19.138;2023-04-25T01:17:57;6.38;;;3.30;;
74974;SDS011;68459;50.836;19.138;2023-04-25T01:21:08;5.20;;;3.00;;
74974;SDS011;68459;50.836;19.138;2023-04-25T01:24:13;5.03;;;3.10;;
74974;SDS011;68459;50.836;19.138;2023-04-25T01:27:17;5.00;;;3.28;;
74974;SDS011;68459;50.836;19.138;2023-04-25T01:30:24;5.10;;;3.10;;
74974;SDS011;68459;50.836;19.138;2023-04-25T01:33:30;5.57;;;3.08;;
74974;SDS011;68459;50.836;19.138;2023-04-25T01:36:36;6.47;;;3.47;;
74974;SDS011;68459;50.836;19.138;2023-04-25T01:39:40;6.57;;;3.77;;
74974;SDS011;68459;50.836;19.138;2023-04-25T01:42:44;7.10;;;3.40;;
74974;SDS011;68459;50.836;19.138;2023-04-25T01:45:49;4.75;;;3.45;;
74974;SDS011;68459;50.836;19.138;2023-04-25T01:48:53;7.25;;;3.88;;
74974;SDS011;68459;50.836;19.138;2023-04-25T01:51:59;6.95;;;4.18;;
74974;SDS011;68459;50.836;19.138;2023-04-25T01:55:02;5.68;;;3.65;;
74974;SDS011;68459;50.836;19.138;2023-04-25T01:58:09;5.70;;;3.67;;
74974;SDS011;68459;50.836;19.138;2023-04-25T02:01:31;4.93;;;3.40;;
74974;SDS011;68459;50.836;19.138;2023-04-25T02:04:49;5.75;;;3.08;;
74974;SDS011;68459;50.836;19.138;2023-04-25T02:07:54;3.90;;;2.63;;
74974;SDS011;68459;50.836;19.138;2023-04-25T02:11:00;4.50;;;2.63;;
74974;SDS011;68459;50.836;19.138;2023-04-25T02:14:12;4.70;;;2.40;;
74974;SDS011;68459;50.836;19.138;2023-04-25T02:17:25;4.20;;;2.78;;
74974;SDS011;68459;50.836;19.138;2023-04-25T02:20:29;4.78;;;2.13;;
74974;SDS011;68459;50.836;19.138;2023-04-25T02:23:34;5.75;;;2.67;;
74974;SDS011;68459;50.836;19.138;2023-04-25T02:26:38;4.75;;;2.83;;
74974;SDS011;68459;50.836;19.138;2023-04-25T02:29:43;4.10;;;2.58;;
74974;SDS011;68459;50.836;19.138;2023-04-25T02:32:46;3.50;;;2.13;;
74974;SDS011;68459;50.836;19.138;2023-04-25T02:35:50;5.68;;;2.38;;
74974;SDS011;68459;50.836;19.138;2023-04-25T02:38:57;5.30;;;2.55;;
74974;SDS011;68459;50.836;19.138;2023-04-25T02:42:02;6.10;;;2.70;;
74974;SDS011;68459;50.836;19.138;2023-04-25T02:45:06;9.73;;;2.90;;
74974;SDS011;68459;50.836;19.138;2023-04-25T02:48:11;4.95;;;2.45;;
74974;SDS011;68459;50.836;19.138;2023-04-25T02:51:15;3.78;;;2.35;;
74974;SDS011;68459;50.836;19.138;2023-04-25T02:54:20;3.65;;;2.28;;
74974;SDS011;68459;50.836;19.138;2023-04-25T02:57:24;5.47;;;2.28;;
74974;SDS011;68459;50.836;19.138;2023-04-25T03:00:28;3.95;;;2.30;;
74974;SDS011;68459;50.836;19.138;2023-04-25T03:03:31;5.47;;;2.73;;
74974;SDS011;68459;50.836;19.138;2023-04-25T03:06:35;4.35;;;2.75;;
74974;SDS011;68459;50.836;19.138;2023-04-25T03:09:40;6.75;;;3.00;;
74974;SDS011;68459;50.836;19.138;2023-04-25T03:12:44;6.07;;;2.90;;
74974;SDS011;68459;50.836;19.138;2023-04-25T03:15:48;6.60;;;3.75;;
74974;SDS011;68459;50.836;19.138;2023-04-25T03:18:53;6.70;;;3.60;;
74974;SDS011;68459;50.836;19.138;2023-04-25T03:21:57;6.20;;;3.00;;
74974;SDS011;68459;50.836;19.138;2023-04-25T03:25:02;6.20;;;2.83;;
74974;SDS011;68459;50.836;19.138;2023-04-25T03:28:07;5.00;;;3.10;;
74974;SDS011;68459;50.836;19.138;2023-04-25T03:31:11;4.03;;;2.70;;
74974;SDS011;68459;50.836;19.138;2023-04-25T03:34:15;4.40;;;2.57;;
74974;SDS011;68459;50.836;19.138;2023-04-25T03:37:19;4.32;;;2.42;;
74974;SDS011;68459;50.836;19.138;2023-04-25T03:40:24;4.20;;;2.30;;
74974;SDS011;68459;50.836;19.138;2023-04-25T03:43:54;2.63;;;1.63;;
74974;SDS011;68459;50.836;19.138;2023-04-25T03:46:58;2.50;;;1.50;;
74974;SDS011;68459;50.836;19.138;2023-04-25T03:50:02;2.50;;;1.60;;
74974;SDS011;68459;50.836;19.138;2023-04-25T03:53:06;2.80;;;1.38;;
74974;SDS011;68459;50.836;19.138;2023-04-25T03:56:31;2.58;;;1.52;;
74974;SDS011;68459;50.836;19.138;2023-04-25T03:59:49;2.22;;;1.50;;
74974;SDS011;68459;50.836;19.138;2023-04-25T04:02:53;3.08;;;1.60;;
74974;SDS011;68459;50.836;19.138;2023-04-25T04:05:57;4.23;;;1.60;;
74974;SDS011;68459;50.836;19.138;2023-04-25T04:09:02;2.15;;;1.25;;
74974;SDS011;68459;50.836;19.138;2023-04-25T04:12:11;2.05;;;1.10;;
74974;SDS011;68459;50.836;19.138;2023-04-25T04:15:16;3.43;;;1.30;;
74974;SDS011;68459;50.836;19.138;2023-04-25T04:18:20;2.47;;;1.50;;
74974;SDS011;68459;50.836;19.138;2023-04-25T04:21:25;2.38;;;1.20;;
74974;SDS011;68459;50.836;19.138;2023-04-25T04:24:29;3.08;;;1.40;;
74974;SDS011;68459;50.836;19.138;2023-04-25T04:27:38;5.95;;;1.30;;
74974;SDS011;68459;50.836;19.138;2023-04-25T04:31:00;2.10;;;1.30;;
74974;SDS011;68459;50.836;19.138;2023-04-25T04:34:05;2.90;;;1.40;;
74974;SDS011;68459;50.836;19.138;2023-04-25T04:37:09;2.53;;;1.20;;
74974;SDS011;68459;50.836;19.138;2023-04-25T04:40:15;2.47;;;1.15;;
74974;SDS011;68459;50.836;19.138;2023-04-25T04:43:29;2.13;;;1.13;;
74974;SDS011;68459;50.836;19.138;2023-04-25T04:46:57;2.60;;;1.30;;
74974;SDS011;68459;50.836;19.138;2023-04-25T04:50:04;2.00;;;1.20;;
74974;SDS011;68459;50.836;19.138;2023-04-25T04:53:35;4.68;;;1.45;;
74974;SDS011;68459;50.836;19.138;2023-04-25T04:56:49;2.85;;;1.38;;
74974;SDS011;68459;50.836;19.138;2023-04-25T05:00:14;2.97;;;1.40;;
74974;SDS011;68459;50.836;19.138;2023-04-25T05:03:18;2.72;;;1.50;;
74974;SDS011;68459;50.836;19.138;2023-04-25T05:06:45;2.85;;;1.50;;
74974;SDS011;68459;50.836;19.138;2023-04-25T05:10:12;3.07;;;1.30;;
74974;SDS011;68459;50.836;19.138;2023-04-25T05:13:37;3.03;;;1.67;;
74974;SDS011;68459;50.836;19.138;2023-04-25T05:17:14;2.38;;;1.42;;
74974;SDS011;68459;50.836;19.138;2023-04-25T05:20:41;2.93;;;1.47;;
74974;SDS011;68459;50.836;19.138;2023-04-25T05:24:03;3.55;;;1.80;;
74974;SDS011;68459;50.836;19.138;2023-04-25T05:27:26;2.78;;;1.40;;
74974;SDS011;68459;50.836;19.138;2023-04-25T05:30:41;3.75;;;1.73;;
74974;SDS011;68459;50.836;19.138;2023-04-25T05:34:02;3.20;;;1.90;;
74974;SDS011;68459;50.836;19.138;2023-04-25T05:37:16;4.32;;;1.88;;
74974;SDS011;68459;50.836;19.138;2023-04-25T05:40:29;4.85;;;1.90;;
74974;SDS011;68459;50.836;19.138;2023-04-25T05:43:45;4.37;;;2.00;;
74974;SDS011;68459;50.836;19.138;2023-04-25T05:47:12;4.70;;;2.50;;
74974;SDS011;68459;50.836;19.138;2023-04-25T05:50:35;7.40;;;2.28;;
74974;SDS011;68459;50.836;19.138;2023-04-25T05:53:58;4.90;;;1.77;;
74974;SDS011;68459;50.836;19.138;2023-04-25T05:57:01;4.03;;;1.80;;
74974;SDS011;68459;50.836;19.138;2023-04-25T06:00:07;5.40;;;2.42;;
74974;SDS011;68459;50.836;19.138;2023-04-25T06:03:15;4.38;;;2.22;;
74974;SDS011;68459;50.836;19.138;2023-04-25T06:06:23;6.10;;;2.40;;
74974;SDS011;68459;50.836;19.138;2023-04-25T06:09:28;4.10;;;1.98;;
74974;SDS011;68459;50.836;19.138;2023-04-25T06:12:32;5.00;;;2.10;;
74974;SDS011;68459;50.836;19.138;2023-04-25T06:15:37;3.00;;;1.90;;
74974;SDS011;68459;50.836;19.138;2023-04-25T06:18:41;4.70;;;2.60;;
74974;SDS011;68459;50.836;19.138;2023-04-25T06:21:46;3.90;;;2.00;;
74974;SDS011;68459;50.836;19.138;2023-04-25T06:24:50;4.73;;;2.43;;
74974;SDS011;68459;50.836;19.138;2023-04-25T06:27:54;5.90;;;2.10;;
74974;SDS011;68459;50.836;19.138;2023-04-25T06:30:58;5.75;;;2.17;;
74974;SDS011;68459;50.836;19.138;2023-04-25T06:34:01;4.95;;;2.50;;
74974;SDS011;68459;50.836;19.138;2023-04-25T06:37:10;4.00;;;1.85;;
74974;SDS011;68459;50.836;19.138;2023-04-25T06:40:14;3.65;;;2.30;;
74974;SDS011;68459;50.836;19.138;2023-04-25T06:43:19;3.83;;;2.45;;
74974;SDS011;68459;50.836;19.138;2023-04-25T06:46:25;6.40;;;2.70;;
74974;SDS011;68459;50.836;19.138;2023-04-25T06:49:32;7.90;;;2.42;;
74974;SDS011;68459;50.836;19.138;2023-04-25T06:52:37;5.88;;;2.70;;
74974;SDS011;68459;50.836;19.138;2023-04-25T06:55:41;5.33;;;2.87;;
74974;SDS011;68459;50.836;19.138;2023-04-25T06:58:49;4.13;;;2.38;;
74974;SDS011;68459;50.836;19.138;2023-04-25T07:02:14;5.53;;;2.60;;
74974;SDS011;68459;50.836;19.138;2023-04-25T07:05:18;5.43;;;2.45;;
74974;SDS011;68459;50.836;19.138;2023-04-25T07:08:23;5.43;;;3.13;;
74974;SDS011;68459;50.836;19.138;2023-04-25T07:11:27;6.75;;;2.85;;
74974;SDS011;68459;50.836;19.138;2023-04-25T07:14:31;4.38;;;3.25;;
74974;SDS011;68459;50.836;19.138;2023-04-25T07:17:35;5.43;;;2.90;;
74974;SDS011;68459;50.836;19.138;2023-04-25T07:20:39;4.13;;;2.50;;
74974;SDS011;68459;50.836;19.138;2023-04-25T07:23:44;5.43;;;3.08;;
74974;SDS011;68459;50.836;19.138;2023-04-25T07:26:52;5.40;;;3.00;;
74974;SDS011;68459;50.836;19.138;2023-04-25T07:30:11;3.95;;;2.92;;
74974;SDS011;68459;50.836;19.138;2023-04-25T07:33:15;15.35;;;9.30;;
74974;SDS011;68459;50.836;19.138;2023-04-25T07:36:19;5.00;;;3.15;;
74974;SDS011;68459;50.836;19.138;2023-04-25T07:39:24;7.93;;;4.65;;
74974;SDS011;68459;50.836;19.138;2023-04-25T07:42:28;5.85;;;3.00;;
74974;SDS011;68459;50.836;19.138;2023-04-25T07:45:32;4.78;;;2.70;;
74974;SDS011;68459;50.836;19.138;2023-04-25T07:48:36;4.60;;;2.50;;
74974;SDS011;68459;50.836;19.138;2023-04-25T07:51:40;5.35;;;2.55;;
74974;SDS011;68459;50.836;19.138;2023-04-25T07:54:49;4.35;;;2.60;;
74974;SDS011;68459;50.836;19.138;2023-04-25T07:57:59;5.47;;;2.60;;
74974;SDS011;68459;50.836;19.138;2023-04-25T08:01:05;4.72;;;2.38;;
74974;SDS011;68459;50.836;19.138;2023-04-25T08:04:08;7.50;;;3.55;;
74974;SDS011;68459;50.836;19.138;2023-04-25T08:07:39;5.57;;;3.30;;
74974;SDS011;68459;50.836;19.138;2023-04-25T08:10:44;6.95;;;3.90;;
74974;SDS011;68459;50.836;19.138;2023-04-25T08:13:51;7.05;;;3.08;;
74974;SDS011;68459;50.836;19.138;2023-04-25T08:16:56;5.47;;;2.90;;
74974;SDS011;68459;50.836;19.138;2023-04-25T08:20:01;5.47;;;3.30;;
74974;SDS011;68459;50.836;19.138;2023-04-25T08:23:08;4.28;;;2.90;;
74974;SDS011;68459;50.836;19.138;2023-04-25T08:26:24;4.53;;;2.78;;
74974;SDS011;68459;50.836;19.138;2023-04-25T08:29:28;10.60;;;3.30;;
74974;SDS011;68459;50.836;19.138;2023-04-25T08:32:32;4.45;;;2.30;;
74974;SDS011;68459;50.836;19.138;2023-04-25T08:36:08;6.50;;;3.15;;
74974;SDS011;68459;50.836;19.138;2023-04-25T08:39:12;5.68;;;2.35;;
74974;SDS011;68459;50.836;19.138;2023-04-25T08:42:31;4.38;;;2.70;;
74974;SDS011;68459;50.836;19.138;2023-04-25T08:45:39;4.47;;;2.53;;
74974;SDS011;68459;50.836;19.138;2023-04-25T08:48:49;4.20;;;2.15;;
74974;SDS011;68459;50.836;19.138;2023-04-25T08:51:59;3.67;;;2.33;;
74974;SDS011;68459;50.836;19.138;2023-04-25T08:55:08;4.85;;;2.67;;
74974;SDS011;68459;50.836;19.138;2023-04-25T08:58:17;3.15;;;2.40;;
74974;SDS011;68459;50.836;19.138;2023-04-25T09:01:22;4.30;;;2.60;;
74974;SDS011;68459;50.836;19.138;2023-04-25T09:04:29;3.78;;;2.28;;
74974;SDS011;68459;50.836;19.138;2023-04-25T09:07:33;3.13;;;2.20;;
74974;SDS011;68459;50.836;19.138;2023-04-25T09:10:38;4.38;;;2.33;;
74974;SDS011;68459;50.836;19.138;2023-04-25T09:13:45;5.43;;;2.17;;
74974;SDS011;68459;50.836;19.138;2023-04-25T09:17:04;5.47;;;2.40;;
74974;SDS011;68459;50.836;19.138;2023-04-25T09:20:22;4.85;;;2.42;;
74974;SDS011;68459;50.836;19.138;2023-04-25T09:23:26;4.30;;;2.43;;
74974;SDS011;68459;50.836;19.138;2023-04-25T09:26:31;4.07;;;2.53;;
74974;SDS011;68459;50.836;19.138;2023-04-25T09:29:37;5.13;;;2.25;;
74974;SDS011;68459;50.836;19.138;2023-04-25T09:32:44;4.30;;;2.57;;
74974;SDS011;68459;50.836;19.138;2023-04-25T09:35:48;5.20;;;2.70;;
74974;SDS011;68459;50.836;19.138;2023-04-25T09:39:05;6.55;;;2.67;;
74974;SDS011;68459;50.836;19.138;2023-04-25T09:42:25;4.57;;;2.80;;
74974;SDS011;68459;50.836;19.138;2023-04-25T09:45:32;4.25;;;2.55;;
74974;SDS011;68459;50.836;19.138;2023-04-25T09:48:49;4.68;;;2.58;;
74974;SDS011;68459;50.836;19.138;2023-04-25T09:52:13;6.50;;;2.83;;
74974;SDS011;68459;50.836;19.138;2023-04-25T09:55:31;4.03;;;2.47;;
74974;SDS011;68459;50.836;19.138;2023-04-25T09:58:38;4.93;;;2.58;;
74974;SDS011;68459;50.836;19.138;2023-04-25T10:01:45;5.30;;;2.58;;
74974;SDS011;68459;50.836;19.138;2023-04-25T10:04:59;3.57;;;2.10;;
74974;SDS011;68459;50.836;19.138;2023-04-25T10:08:15;3.67;;;2.10;;
74974;SDS011;68459;50.836;19.138;2023-04-25T10:11:20;12.65;;;6.18;;
74974;SDS011;68459;50.836;19.138;2023-04-25T10:14:27;4.60;;;2.70;;
74974;SDS011;68459;50.836;19.138;2023-04-25T10:17:34;5.07;;;2.70;;
74974;SDS011;68459;50.836;19.138;2023-04-25T10:20:38;4.88;;;2.30;;
74974;SDS011;68459;50.836;19.138;2023-04-25T10:23:42;3.35;;;1.95;;
74974;SDS011;68459;50.836;19.138;2023-04-25T10:26:47;4.93;;;2.40;;
74974;SDS011;68459;50.836;19.138;2023-04-25T10:34:05;5.47;;;2.10;;
74974;SDS011;68459;50.836;19.138;2023-04-25T10:37:09;5.13;;;1.60;;
74974;SDS011;68459;50.836;19.138;2023-04-25T10:40:13;3.03;;;1.60;;
74974;SDS011;68459;50.836;19.138;2023-04-25T10:43:34;4.53;;;1.77;;
74974;SDS011;68459;50.836;19.138;2023-04-25T10:46:43;3.50;;;1.58;;
74974;SDS011;68459;50.836;19.138;2023-04-25T10:49:50;3.10;;;1.25;;
74974;SDS011;68459;50.836;19.138;2023-04-25T10:52:54;3.92;;;1.33;;
74974;SDS011;68459;50.836;19.138;2023-04-25T10:55:57;2.38;;;1.27;;
74974;SDS011;68459;50.836;19.138;2023-04-25T10:59:07;2.67;;;1.03;;
74974;SDS011;68459;50.836;19.138;2023-04-25T11:02:14;2.50;;;1.30;;
74974;SDS011;68459;50.836;19.138;2023-04-25T11:05:22;4.18;;;1.20;;
74974;SDS011;68459;50.836;19.138;2023-04-25T11:08:47;4.93;;;1.70;;
74974;SDS011;68459;50.836;19.138;2023-04-25T11:11:53;4.07;;;1.10;;
74974;SDS011;68459;50.836;19.138;2023-04-25T11:14:59;3.58;;;1.33;;
74974;SDS011;68459;50.836;19.138;2023-04-25T11:18:06;4.95;;;1.33;;
74974;SDS011;68459;50.836;19.138;2023-04-25T11:21:13;3.78;;;1.00;;
74974;SDS011;68459;50.836;19.138;2023-04-25T11:24:17;3.45;;;1.55;;
74974;SDS011;68459;50.836;19.138;2023-04-25T11:27:21;3.35;;;1.17;;
74974;SDS011;68459;50.836;19.138;2023-04-25T11:30:26;2.60;;;1.03;;
74974;SDS011;68459;50.836;19.138;2023-04-25T11:33:32;2.78;;;0.95;;
74974;SDS011;68459;50.836;19.138;2023-04-25T11:36:37;3.30;;;1.20;;
74974;SDS011;68459;50.836;19.138;2023-04-25T11:39:43;3.50;;;1.40;;
74974;SDS011;68459;50.836;19.138;2023-04-25T11:42:49;3.33;;;1.00;;
74974;SDS011;68459;50.836;19.138;2023-04-25T11:45:55;2.35;;;1.00;;
74974;SDS011;68459;50.836;19.138;2023-04-25T11:48:59;3.13;;;1.15;;
74974;SDS011;68459;50.836;19.138;2023-04-25T11:52:05;3.10;;;1.23;;
74974;SDS011;68459;50.836;19.138;2023-04-25T11:55:12;2.83;;;1.23;;
74974;SDS011;68459;50.836;19.138;2023-04-25T11:58:17;5.03;;;1.40;;
74974;SDS011;68459;50.836;19.138;2023-04-25T12:01:25;3.03;;;1.10;;
74974;SDS011;68459;50.836;19.138;2023-04-25T12:04:36;3.38;;;1.20;;
74974;SDS011;68459;50.836;19.138;2023-04-25T12:07:42;3.20;;;1.30;;
74974;SDS011;68459;50.836;19.138;2023-04-25T12:10:46;2.93;;;1.40;;
74974;SDS011;68459;50.836;19.138;2023-04-25T12:13:51;4.30;;;1.20;;
74974;SDS011;68459;50.836;19.138;2023-04-25T12:16:56;4.00;;;1.25;;
74974;SDS011;68459;50.836;19.138;2023-04-25T12:20:05;3.80;;;1.42;;
74974;SDS011;68459;50.836;19.138;2023-04-25T12:23:13;3.33;;;1.23;;
74974;SDS011;68459;50.836;19.138;2023-04-25T12:26:17;3.03;;;1.40;;
74974;SDS011;68459;50.836;19.138;2023-04-25T12:29:23;3.55;;;1.52;;
74974;SDS011;68459;50.836;19.138;2023-04-25T12:32:36;3.27;;;1.73;;
74974;SDS011;68459;50.836;19.138;2023-04-25T12:35:40;3.55;;;1.30;;
74974;SDS011;68459;50.836;19.138;2023-04-25T12:38:46;4.72;;;2.00;;
74974;SDS011;68459;50.836;19.138;2023-04-25T12:41:51;6.33;;;1.80;;
74974;SDS011;68459;50.836;19.138;2023-04-25T12:44:55;2.53;;;1.60;;
74974;SDS011;68459;50.836;19.138;2023-04-25T12:47:59;5.45;;;1.60;;
74974;SDS011;68459;50.836;19.138;2023-04-25T12:51:05;5.25;;;1.85;;
74974;SDS011;68459;50.836;19.138;2023-04-25T12:54:09;2.67;;;1.42;;
74974;SDS011;68459;50.836;19.138;2023-04-25T12:57:13;4.22;;;1.90;;
74974;SDS011;68459;50.836;19.138;2023-04-25T13:00:17;3.70;;;1.92;;
74974;SDS011;68459;50.836;19.138;2023-04-25T13:03:21;3.47;;;1.50;;
74974;SDS011;68459;50.836;19.138;2023-04-25T13:06:25;3.15;;;1.63;;
74974;SDS011;68459;50.836;19.138;2023-04-25T13:09:31;4.35;;;1.80;;
74974;SDS011;68459;50.836;19.138;2023-04-25T13:12:35;3.73;;;1.73;;
74974;SDS011;68459;50.836;19.138;2023-04-25T13:15:39;4.60;;;1.70;;
74974;SDS011;68459;50.836;19.138;2023-04-25T13:18:42;4.20;;;1.58;;
74974;SDS011;68459;50.836;19.138;2023-04-25T13:21:46;4.38;;;1.52;;
74974;SDS011;68459;50.836;19.138;2023-04-25T13:24:51;3.28;;;1.48;;
74974;SDS011;68459;50.836;19.138;2023-04-25T13:27:55;5.25;;;1.40;;
74974;SDS011;68459;50.836;19.138;2023-04-25T13:30:59;3.90;;;1.83;;
74974;SDS011;68459;50.836;19.138;2023-04-25T13:34:03;8.57;;;2.00;;
74974;SDS011;68459;50.836;19.138;2023-04-25T13:37:07;4.97;;;1.88;;
74974;SDS011;68459;50.836;19.138;2023-04-25T13:40:12;5.95;;;1.98;;
74974;SDS011;68459;50.836;19.138;2023-04-25T13:43:15;6.30;;;1.90;;
74974;SDS011;68459;50.836;19.138;2023-04-25T13:46:19;3.80;;;1.73;;
74974;SDS011;68459;50.836;19.138;2023-04-25T13:49:43;3.75;;;1.70;;
74974;SDS011;68459;50.836;19.138;2023-04-25T13:52:46;3.50;;;1.90;;
74974;SDS011;68459;50.836;19.138;2023-04-25T13:55:51;4.43;;;2.10;;
74974;SDS011;68459;50.836;19.138;2023-04-25T13:58:55;4.40;;;1.67;;
74974;SDS011;68459;50.836;19.138;2023-04-25T14:01:59;5.03;;;2.10;;
74974;SDS011;68459;50.836;19.138;2023-04-25T14:05:04;4.93;;;1.83;;
74974;SDS011;68459;50.836;19.138;2023-04-25T14:08:09;4.30;;;2.10;;
74974;SDS011;68459;50.836;19.138;2023-04-25T14:11:14;3.90;;;2.35;;
74974;SDS011;68459;50.836;19.138;2023-04-25T14:14:19;4.27;;;1.93;;
74974;SDS011;68459;50.836;19.138;2023-04-25T14:17:24;4.57;;;1.88;;
74974;SDS011;68459;50.836;19.138;2023-04-25T14:20:27;6.53;;;2.67;;
74974;SDS011;68459;50.836;19.138;2023-04-25T14:23:32;5.47;;;2.30;;
74974;SDS011;68459;50.836;19.138;2023-04-25T14:26:37;5.43;;;2.75;;
74974;SDS011;68459;50.836;19.138;2023-04-25T14:29:42;5.30;;;2.58;;
74974;SDS011;68459;50.836;19.138;2023-04-25T14:32:48;7.10;;;2.53;;
74974;SDS011;68459;50.836;19.138;2023-04-25T14:35:52;6.20;;;2.20;;
74974;SDS011;68459;50.836;19.138;2023-04-25T14:38:56;5.72;;;2.20;;
74974;SDS011;68459;50.836;19.138;2023-04-25T14:42:01;8.35;;;2.53;;
74974;SDS011;68459;50.836;19.138;2023-04-25T14:45:05;6.07;;;2.40;;
74974;SDS011;68459;50.836;19.138;2023-04-25T14:48:11;5.93;;;2.20;;
74974;SDS011;68459;50.836;19.138;2023-04-25T14:51:15;4.13;;;2.10;;
74974;SDS011;68459;50.836;19.138;2023-04-25T14:54:19;6.22;;;2.53;;
74974;SDS011;68459;50.836;19.138;2023-04-25T14:57:24;8.60;;;3.97;;
74974;SDS011;68459;50.836;19.138;2023-04-25T15:00:28;4.40;;;2.10;;
74974;SDS011;68459;50.836;19.138;2023-04-25T15:03:33;4.05;;;2.10;;
74974;SDS011;68459;50.836;19.138;2023-04-25T15:06:38;4.93;;;2.13;;
74974;SDS011;68459;50.836;19.138;2023-04-25T15:09:41;4.35;;;2.28;;
74974;SDS011;68459;50.836;19.138;2023-04-25T15:12:46;4.22;;;2.38;;
74974;SDS011;68459;50.836;19.138;2023-04-25T15:15:50;4.00;;;2.00;;
74974;SDS011;68459;50.836;19.138;2023-04-25T15:18:55;4.93;;;1.90;;
74974;SDS011;68459;50.836;19.138;2023-04-25T15:21:59;6.35;;;1.77;;
74974;SDS011;68459;50.836;19.138;2023-04-25T15:25:03;4.55;;;2.00;;
74974;SDS011;68459;50.836;19.138;2023-04-25T15:28:10;4.28;;;2.10;;
74974;SDS011;68459;50.836;19.138;2023-04-25T15:31:16;4.20;;;2.33;;
74974;SDS011;68459;50.836;19.138;2023-04-25T15:34:20;4.80;;;2.20;;
74974;SDS011;68459;50.836;19.138;2023-04-25T15:37:24;5.97;;;2.50;;
74974;SDS011;68459;50.836;19.138;2023-04-25T15:40:27;4.45;;;2.40;;
74974;SDS011;68459;50.836;19.138;2023-04-25T15:43:33;4.30;;;2.40;;
74974;SDS011;68459;50.836;19.138;2023-04-25T15:46:38;4.70;;;2.10;;
74974;SDS011;68459;50.836;19.138;2023-04-25T15:49:42;8.75;;;4.13;;
74974;SDS011;68459;50.836;19.138;2023-04-25T15:52:47;7.40;;;2.53;;
74974;SDS011;68459;50.836;19.138;2023-04-25T15:55:51;4.90;;;2.45;;
74974;SDS011;68459;50.836;19.138;2023-04-25T15:58:56;4.88;;;2.38;;
74974;SDS011;68459;50.836;19.138;2023-04-25T16:02:00;4.47;;;2.40;;
74974;SDS011;68459;50.836;19.138;2023-04-25T16:05:04;4.75;;;2.30;;
74974;SDS011;68459;50.836;19.138;2023-04-25T16:08:10;4.50;;;2.03;;
74974;SDS011;68459;50.836;19.138;2023-04-25T16:11:13;4.53;;;2.17;;
74974;SDS011;68459;50.836;19.138;2023-04-25T16:14:19;5.15;;;2.28;;
74974;SDS011;68459;50.836;19.138;2023-04-25T16:17:22;3.40;;;2.00;;
74974;SDS011;68459;50.836;19.138;2023-04-25T16:20:26;4.72;;;2.20;;
74974;SDS011;68459;50.836;19.138;2023-04-25T16:23:29;4.60;;;2.30;;
74974;SDS011;68459;50.836;19.138;2023-04-25T16:26:33;4.53;;;2.38;;
74974;SDS011;68459;50.836;19.138;2023-04-25T16:29:39;4.00;;;2.45;;
74974;SDS011;68459;50.836;19.138;2023-04-25T16:32:43;3.92;;;2.10;;
74974;SDS011;68459;50.836;19.138;2023-04-25T16:35:47;5.13;;;2.42;;
74974;SDS011;68459;50.836;19.138;2023-04-25T16:38:53;5.70;;;2.00;;
74974;SDS011;68459;50.836;19.138;2023-04-25T16:41:57;4.28;;;1.95;;
74974;SDS011;68459;50.836;19.138;2023-04-25T16:45:02;3.15;;;1.88;;
74974;SDS011;68459;50.836;19.138;2023-04-25T16:48:06;4.20;;;1.77;;
74974;SDS011;68459;50.836;19.138;2023-04-25T16:51:10;3.17;;;1.80;;
74974;SDS011;68459;50.836;19.138;2023-04-25T16:54:14;3.38;;;1.75;;
74974;SDS011;68459;50.836;19.138;2023-04-25T16:57:18;4.63;;;2.00;;
74974;SDS011;68459;50.836;19.138;2023-04-25T17:00:23;5.00;;;1.80;;
74974;SDS011;68459;50.836;19.138;2023-04-25T17:03:27;6.50;;;2.28;;
74974;SDS011;68459;50.836;19.138;2023-04-25T17:06:33;5.18;;;2.70;;
74974;SDS011;68459;50.836;19.138;2023-04-25T17:09:37;5.47;;;2.87;;
74974;SDS011;68459;50.836;19.138;2023-04-25T17:12:41;2.65;;;1.70;;
74974;SDS011;68459;50.836;19.138;2023-04-25T17:15:47;3.47;;;1.55;;
74974;SDS011;68459;50.836;19.138;2023-04-25T17:18:51;4.90;;;1.67;;
74974;SDS011;68459;50.836;19.138;2023-04-25T17:21:55;3.40;;;1.77;;
74974;SDS011;68459;50.836;19.138;2023-04-25T17:24:59;3.50;;;1.80;;
74974;SDS011;68459;50.836;19.138;2023-04-25T17:28:03;3.78;;;1.83;;
74974;SDS011;68459;50.836;19.138;2023-04-25T17:31:08;4.05;;;1.80;;
74974;SDS011;68459;50.836;19.138;2023-04-25T17:34:13;4.55;;;2.13;;
74974;SDS011;68459;50.836;19.138;2023-04-25T17:37:18;3.13;;;1.65;;
74974;SDS011;68459;50.836;19.138;2023-04-25T17:40:24;3.47;;;1.70;;
74974;SDS011;68459;50.836;19.138;2023-04-25T17:43:28;4.70;;;1.77;;
74974;SDS011;68459;50.836;19.138;2023-04-25T17:46:35;2.78;;;1.65;;
74974;SDS011;68459;50.836;19.138;2023-04-25T17:49:39;3.43;;;1.80;;
74974;SDS011;68459;50.836;19.138;2023-04-25T17:52:43;4.78;;;1.88;;
74974;SDS011;68459;50.836;19.138;2023-04-25T17:55:48;3.50;;;1.98;;
74974;SDS011;68459;50.836;19.138;2023-04-25T17:58:53;3.25;;;2.00;;
74974;SDS011;68459;50.836;19.138;2023-04-25T18:01:58;4.72;;;1.95;;
74974;SDS011;68459;50.836;19.138;2023-04-25T18:05:02;4.47;;;1.90;;
74974;SDS011;68459;50.836;19.138;2023-04-25T18:08:10;4.65;;;2.20;;
74974;SDS011;68459;50.836;19.138;2023-04-25T18:11:14;6.27;;;2.33;;
74974;SDS011;68459;50.836;19.138;2023-04-25T18:14:18;4.97;;;2.85;;
74974;SDS011;68459;50.836;19.138;2023-04-25T18:17:25;7.53;;;2.70;;
74974;SDS011;68459;50.836;19.138;2023-04-25T18:20:28;4.73;;;2.87;;
74974;SDS011;68459;50.836;19.138;2023-04-25T18:23:32;4.57;;;2.70;;
74974;SDS011;68459;50.836;19.138;2023-04-25T18:26:36;4.47;;;2.58;;
74974;SDS011;68459;50.836;19.138;2023-04-25T18:29:40;5.60;;;2.60;;
74974;SDS011;68459;50.836;19.138;2023-04-25T18:32:47;7.38;;;3.40;;